Zim Rio Grande — 9HNV9 — position and weather

sailwx.info

Track history (hours):
 
Tides and Currents Weather Stations Pressure Air Temp Water Temp Dewpoint Dewpoint Depression Visibility Wind Speed Wind Dir Waves Ship Positions

Zim Rio Grande

Last reported at 2014-Aug-31 21:28 UTC. Time now 2014-Sep-02 21:38 UTC.
Position N 32°21' E 032°50'.

Length 260 m; draft 11.4 m.

Type: Ship (hazmat cat A). MMSI: 249253000.

Date/timePositionNaut miles runAvg speedWind from/ knotsBaromVisibWave heightAir tempDewpointWater temp
2014-Aug-31 21:28N 32°21' E 032°50'1311.8
2014-Aug-31 20:23N 32°24' E 032°36'1011.5
2014-Aug-31 19:32N 32°26' E 032°24'1111.4
2014-Aug-31 18:33N 32°28' E 032°11'1111.5
2014-Aug-31 17:33N 32°32' E 031°58'1211.8
2014-Aug-31 16:33N 32°35' E 031°45'1212.1
2014-Aug-31 15:33N 32°39' E 031°31'1212.0
2014-Aug-31 14:33N 32°42' E 031°18'1311.8
2014-Aug-31 13:28N 32°45' E 031°03'1111.9
2014-Aug-31 12:33N 32°48' E 030°50'1212.1
2014-Aug-31 11:33N 32°51' E 030°36'6011.9
2014-Aug-31 06:33N 33°07' E 029°28'2712.0
2014-Aug-31 04:16N 33°15' E 028°56'7311.8
2014-Aug-30 22:07N 33°33' E 027°32'712.2
2014-Aug-30 21:33N 33°35' E 027°24'  
2014-Aug-28 17:24N 36°14' E 015°30'1012.0
2014-Aug-28 16:33N 36°17' E 015°18'1212.2
2014-Aug-28 15:33N 36°20' E 015°03'1212.1
2014-Aug-28 14:33N 36°23' E 014°48'1212.1
2014-Aug-28 13:33N 36°26' E 014°34'1212.0
2014-Aug-28 12:33N 36°30' E 014°20'1212.0
2014-Aug-28 11:33N 36°32' E 014°05'1211.9
2014-Aug-28 10:33N 36°35' E 013°51'1211.9
2014-Aug-28 09:33N 36°38' E 013°36'1211.7
2014-Aug-28 08:33N 36°42' E 013°23'1211.9
2014-Aug-28 07:33N 36°46' E 013°09'1211.8
2014-Aug-28 06:33N 36°48' E 012°54'1211.7
2014-Aug-28 05:33N 36°51' E 012°40'1211.8
2014-Aug-28 04:33N 36°55' E 012°26'1211.7
2014-Aug-28 03:33N 36°59' E 012°12'1211.7
2014-Aug-28 02:33N 37°04' E 011°59'1412.1
2014-Aug-28 01:25N 37°10' E 011°44'1512.0
2014-Aug-28 00:11N 37°16' E 011°26'812.1
2014-Aug-27 23:33N 37°18' E 011°17'1211.9
2014-Aug-27 22:33N 37°24' E 011°04'1211.9
2014-Aug-27 21:33N 37°30' E 010°51'1212.0
2014-Aug-27 20:33N 37°35' E 010°38'1212.3
2014-Aug-27 19:33N 37°41' E 010°24'1312.6
2014-Aug-27 18:33N 37°47' E 010°10'1312.7
2014-Aug-27 17:33N 37°53' E 009°56'1212.3
2014-Aug-27 16:33N 37°58' E 009°42'1212.2
2014-Aug-27 15:33N 38°03' E 009°28'1212.0
2014-Aug-27 14:33N 38°09' E 009°14'1211.9
2014-Aug-27 13:33N 38°14' E 009°01'1212.1
2014-Aug-27 12:33N 38°20' E 008°47'1212.1
2014-Aug-27 11:33N 38°25' E 008°33'1211.8
2014-Aug-27 10:33N 38°31' E 008°20'1212.0
2014-Aug-27 09:33N 38°36' E 008°06'2611.7
2014-Aug-27 07:21N 38°48' E 007°37'2311.4
2014-Aug-27 05:22N 38°58' E 007°11'2812.3
2014-Aug-27 03:04N 39°11' E 006°38'4 7.1
2014-Aug-27 02:33N 39°12' E 006°34'1111.4
2014-Aug-27 01:33N 39°18' E 006°21'1111.2
2014-Aug-27 00:33N 39°23' E 006°08'1211.5
2014-Aug-26 23:33N 39°28' E 005°55'1211.7
2014-Aug-26 22:33N 39°34' E 005°42'1312.3
2014-Aug-26 21:32N 39°39' E 005°27'1211.8
2014-Aug-26 20:33N 39°45' E 005°14'1111.4
2014-Aug-26 19:33N 39°50' E 005°00'1211.5
2014-Aug-26 18:33N 39°55' E 004°47'1211.8
2014-Aug-26 17:33N 40°01' E 004°33'1111.5
2014-Aug-26 16:33N 40°06' E 004°20'1211.8
2014-Aug-26 15:33N 40°10' E 004°06'1212.5
2014-Aug-26 14:34N 40°15' E 003°51'1211.6
2014-Aug-26 13:32N 40°20' E 003°36'1211.9
2014-Aug-26 12:32N 40°24' E 003°22'1211.8
2014-Aug-26 11:34N 40°28' E 003°08'1211.8
2014-Aug-26 10:33N 40°33' E 002°53'1211.7
2014-Aug-26 09:34N 40°37' E 002°39'1211.7
2014-Aug-26 08:33N 40°41' E 002°25'1211.7
2014-Aug-26 07:33N 40°46' E 002°10'1211.7
2014-Aug-26 06:33N 40°50' E 001°56'1211.5
2014-Aug-26 05:33N 40°54' E 001°42'1211.7
2014-Aug-26 04:33N 40°58' E 001°27'1312.6
2014-Aug-26 03:33N 41°04' E 001°12'1 1.1
2014-Aug-26 02:12N 41°06' E 001°13'0 0.0
2014-Aug-26 00:30N 41°06' E 001°13'0 0.0
2014-Aug-25 23:33N 41°06' E 001°13'0 0.0
2014-Aug-25 22:12N 41°06' E 001°13'0 0.0
2014-Aug-25 21:30N 41°06' E 001°13'0 0.0
2014-Aug-25 20:30N 41°06' E 001°13'0 0.0
2014-Aug-25 19:33N 41°06' E 001°13'0 0.0
2014-Aug-25 18:24N 41°06' E 001°13'0 0.0
2014-Aug-25 17:24N 41°06' E 001°13'0 0.0
2014-Aug-25 16:24N 41°06' E 001°13'1 0.1
2014-Aug-25 04:27N 41°05' E 001°13'9 9.5
2014-Aug-25 03:32N 40°59' E 001°21'4 4.4
2014-Aug-25 02:33N 40°56' E 001°25'0 0.2
2014-Aug-25 01:32N 40°56' E 001°25'0 0.2
2014-Aug-25 00:32N 40°55' E 001°25'0 0.3
2014-Aug-24 23:34N 40°55' E 001°25'0 0.5
2014-Aug-24 22:33N 40°55' E 001°24'2 2.0
2014-Aug-24 21:30N 40°55' E 001°21'1212.7
2014-Aug-24 20:33N 40°46' E 001°11'1212.1
2014-Aug-24 19:33N 40°34' E 001°06'1212.1
2014-Aug-24 18:33N 40°22' E 001°03'1212.0
2014-Aug-24 17:33N 40°10' E 001°00'1212.1
2014-Aug-24 16:33N 39°59' E 000°57'1211.9
2014-Aug-24 15:33N 39°47' E 000°53'16211.6
2014-Aug-24 01:31N 37°24' W 000°45'1211.7
2014-Aug-24 00:30N 37°15' W 000°55'1111.6
2014-Aug-23 23:33N 37°08' W 001°06'35511.8
2014-Aug-22 17:25N 36°14' W 008°23'1112.2
2014-Aug-22 16:33N 36°16' W 008°36'1312.6
2014-Aug-22 15:33N 36°18' W 008°51'1212.4
2014-Aug-22 14:33N 36°20' W 009°06'1212.4
2014-Aug-22 13:33N 36°23' W 009°21'1212.3
2014-Aug-22 12:33N 36°26' W 009°36'1212.3
2014-Aug-22 11:33N 36°30' W 009°51'1612.0
2014-Aug-22 10:16N 36°35' W 010°09'912.1
2014-Aug-22 09:31N 36°37' W 010°20'  
Track history (hours):
 
Tides and Currents Weather Stations Pressure Air Temp Water Temp Dewpoint Dewpoint Depression Visibility Wind Speed Wind Dir Waves Ship Positions

Zim Rio Grande

Last reported at 2014-Aug-31 21:28 UTC. Time now 2014-Sep-02 21:38 UTC.
Position N 32°21' E 032°50'.

Length 260 m; draft 11.4 m.

Type: Ship (hazmat cat A). MMSI: 249253000.

Date/timePositionNaut miles runAvg speedWind from/ knotsBaromVisibWave heightAir tempDewpointWater temp
2014-Aug-31 21:28N 32°21' E 032°50'1311.8
2014-Aug-31 20:23N 32°24' E 032°36'1011.5
2014-Aug-31 19:32N 32°26' E 032°24'1111.4
2014-Aug-31 18:33N 32°28' E 032°11'1111.5
2014-Aug-31 17:33N 32°32' E 031°58'1211.8
2014-Aug-31 16:33N 32°35' E 031°45'1212.1
2014-Aug-31 15:33N 32°39' E 031°31'1212.0
2014-Aug-31 14:33N 32°42' E 031°18'1311.8
2014-Aug-31 13:28N 32°45' E 031°03'1111.9
2014-Aug-31 12:33N 32°48' E 030°50'1212.1
2014-Aug-31 11:33N 32°51' E 030°36'6011.9
2014-Aug-31 06:33N 33°07' E 029°28'2712.0
2014-Aug-31 04:16N 33°15' E 028°56'7311.8
2014-Aug-30 22:07N 33°33' E 027°32'712.2
2014-Aug-30 21:33N 33°35' E 027°24'  
2014-Aug-28 17:24N 36°14' E 015°30'1012.0
2014-Aug-28 16:33N 36°17' E 015°18'1212.2
2014-Aug-28 15:33N 36°20' E 015°03'1212.1
2014-Aug-28 14:33N 36°23' E 014°48'1212.1
2014-Aug-28 13:33N 36°26' E 014°34'1212.0
2014-Aug-28 12:33N 36°30' E 014°20'1212.0
2014-Aug-28 11:33N 36°32' E 014°05'1211.9
2014-Aug-28 10:33N 36°35' E 013°51'1211.9
2014-Aug-28 09:33N 36°38' E 013°36'1211.7
2014-Aug-28 08:33N 36°42' E 013°23'1211.9
2014-Aug-28 07:33N 36°46' E 013°09'1211.8
2014-Aug-28 06:33N 36°48' E 012°54'1211.7
2014-Aug-28 05:33N 36°51' E 012°40'1211.8
2014-Aug-28 04:33N 36°55' E 012°26'1211.7
2014-Aug-28 03:33N 36°59' E 012°12'1211.7
2014-Aug-28 02:33N 37°04' E 011°59'1412.1
2014-Aug-28 01:25N 37°10' E 011°44'1512.0
2014-Aug-28 00:11N 37°16' E 011°26'812.1
2014-Aug-27 23:33N 37°18' E 011°17'1211.9
2014-Aug-27 22:33N 37°24' E 011°04'1211.9
2014-Aug-27 21:33N 37°30' E 010°51'1212.0
2014-Aug-27 20:33N 37°35' E 010°38'1212.3
2014-Aug-27 19:33N 37°41' E 010°24'1312.6
2014-Aug-27 18:33N 37°47' E 010°10'1312.7
2014-Aug-27 17:33N 37°53' E 009°56'1212.3
2014-Aug-27 16:33N 37°58' E 009°42'1212.2
2014-Aug-27 15:33N 38°03' E 009°28'1212.0
2014-Aug-27 14:33N 38°09' E 009°14'1211.9
2014-Aug-27 13:33N 38°14' E 009°01'1212.1
2014-Aug-27 12:33N 38°20' E 008°47'1212.1
2014-Aug-27 11:33N 38°25' E 008°33'1211.8
2014-Aug-27 10:33N 38°31' E 008°20'1212.0
2014-Aug-27 09:33N 38°36' E 008°06'2611.7
2014-Aug-27 07:21N 38°48' E 007°37'2311.4
2014-Aug-27 05:22N 38°58' E 007°11'2812.3
2014-Aug-27 03:04N 39°11' E 006°38'4 7.1
2014-Aug-27 02:33N 39°12' E 006°34'1111.4
2014-Aug-27 01:33N 39°18' E 006°21'1111.2
2014-Aug-27 00:33N 39°23' E 006°08'1211.5
2014-Aug-26 23:33N 39°28' E 005°55'1211.7
2014-Aug-26 22:33N 39°34' E 005°42'1312.3
2014-Aug-26 21:32N 39°39' E 005°27'1211.8
2014-Aug-26 20:33N 39°45' E 005°14'1111.4
2014-Aug-26 19:33N 39°50' E 005°00'1211.5
2014-Aug-26 18:33N 39°55' E 004°47'1211.8
2014-Aug-26 17:33N 40°01' E 004°33'1111.5
2014-Aug-26 16:33N 40°06' E 004°20'1211.8
2014-Aug-26 15:33N 40°10' E 004°06'1212.5
2014-Aug-26 14:34N 40°15' E 003°51'1211.6
2014-Aug-26 13:32N 40°20' E 003°36'1211.9
2014-Aug-26 12:32N 40°24' E 003°22'1211.8
2014-Aug-26 11:34N 40°28' E 003°08'1211.8
2014-Aug-26 10:33N 40°33' E 002°53'1211.7
2014-Aug-26 09:34N 40°37' E 002°39'1211.7
2014-Aug-26 08:33N 40°41' E 002°25'1211.7
2014-Aug-26 07:33N 40°46' E 002°10'1211.7
2014-Aug-26 06:33N 40°50' E 001°56'1211.5
2014-Aug-26 05:33N 40°54' E 001°42'1211.7
2014-Aug-26 04:33N 40°58' E 001°27'1312.6
2014-Aug-26 03:33N 41°04' E 001°12'1 1.1
2014-Aug-26 02:12N 41°06' E 001°13'0 0.0
2014-Aug-26 00:30N 41°06' E 001°13'0 0.0
2014-Aug-25 23:33N 41°06' E 001°13'0 0.0
2014-Aug-25 22:12N 41°06' E 001°13'0 0.0
2014-Aug-25 21:30N 41°06' E 001°13'0 0.0
2014-Aug-25 20:30N 41°06' E 001°13'0 0.0
2014-Aug-25 19:33N 41°06' E 001°13'0 0.0
2014-Aug-25 18:24N 41°06' E 001°13'0 0.0
2014-Aug-25 17:24N 41°06' E 001°13'0 0.0
2014-Aug-25 16:24N 41°06' E 001°13'1 0.1
2014-Aug-25 04:27N 41°05' E 001°13'9 9.5
2014-Aug-25 03:32N 40°59' E 001°21'4 4.4
2014-Aug-25 02:33N 40°56' E 001°25'0 0.2
2014-Aug-25 01:32N 40°56' E 001°25'0 0.2
2014-Aug-25 00:32N 40°55' E 001°25'0 0.3
2014-Aug-24 23:34N 40°55' E 001°25'0 0.5
2014-Aug-24 22:33N 40°55' E 001°24'2 2.0
2014-Aug-24 21:30N 40°55' E 001°21'1212.7
2014-Aug-24 20:33N 40°46' E 001°11'1212.1
2014-Aug-24 19:33N 40°34' E 001°06'1212.1
2014-Aug-24 18:33N 40°22' E 001°03'1212.0
2014-Aug-24 17:33N 40°10' E 001°00'1212.1
2014-Aug-24 16:33N 39°59' E 000°57'1211.9
2014-Aug-24 15:33N 39°47' E 000°53'16211.6
2014-Aug-24 01:31N 37°24' W 000°45'1211.7
2014-Aug-24 00:30N 37°15' W 000°55'1111.6
2014-Aug-23 23:33N 37°08' W 001°06'35511.8
2014-Aug-22 17:25N 36°14' W 008°23'1112.2
2014-Aug-22 16:33N 36°16' W 008°36'1312.6
2014-Aug-22 15:33N 36°18' W 008°51'1212.4
2014-Aug-22 14:33N 36°20' W 009°06'1212.4
2014-Aug-22 13:33N 36°23' W 009°21'1212.3
2014-Aug-22 12:33N 36°26' W 009°36'1212.3
2014-Aug-22 11:33N 36°30' W 009°51'1612.0
2014-Aug-22 10:16N 36°35' W 010°09'912.1
2014-Aug-22 09:31N 36°37' W 010°20'  

Dump ship's entire track history